sensor_id;sensor_type;location;lat;lon;timestamp;temperature;humidity
26164;DHT22;13914;48.178;11.716;2022-09-09T00:00:33;15.80;74.60
26164;DHT22;13914;48.178;11.716;2022-09-09T00:03:18;15.80;74.60
26164;DHT22;13914;48.178;11.716;2022-09-09T00:05:52;15.80;74.60
26164;DHT22;13914;48.178;11.716;2022-09-09T00:08:27;15.70;74.50
26164;DHT22;13914;48.178;11.716;2022-09-09T00:11:03;15.70;74.70
26164;DHT22;13914;48.178;11.716;2022-09-09T00:13:36;15.70;74.70
26164;DHT22;13914;48.178;11.716;2022-09-09T00:16:21;15.70;74.60
26164;DHT22;13914;48.178;11.716;2022-09-09T00:18:52;15.70;74.80
26164;DHT22;13914;48.178;11.716;2022-09-09T00:21:46;15.70;74.80
26164;DHT22;13914;48.178;11.716;2022-09-09T00:24:44;15.60;74.80
26164;DHT22;13914;48.178;11.716;2022-09-09T00:27:40;15.60;74.70
26164;DHT22;13914;48.178;11.716;2022-09-09T00:30:18;15.50;74.70
26164;DHT22;13914;48.178;11.716;2022-09-09T00:32:47;15.50;74.80
26164;DHT22;13914;48.178;11.716;2022-09-09T00:35:29;15.50;75.00
26164;DHT22;13914;48.178;11.716;2022-09-09T00:38:03;15.50;74.70
26164;DHT22;13914;48.178;11.716;2022-09-09T00:40:45;15.50;75.00
26164;DHT22;13914;48.178;11.716;2022-09-09T00:43:29;15.40;75.00
26164;DHT22;13914;48.178;11.716;2022-09-09T00:46:25;15.50;75.00
26164;DHT22;13914;48.178;11.716;2022-09-09T00:57:31;15.30;74.90
26164;DHT22;13914;48.178;11.716;2022-09-09T01:08:05;15.20;74.70
26164;DHT22;13914;48.178;11.716;2022-09-09T01:10:58;15.20;75.00
26164;DHT22;13914;48.178;11.716;2022-09-09T01:13:30;15.20;74.90
26164;DHT22;13914;48.178;11.716;2022-09-09T01:16:00;15.20;75.10
26164;DHT22;13914;48.178;11.716;2022-09-09T01:18:39;15.20;75.00
26164;DHT22;13914;48.178;11.716;2022-09-09T01:26:56;15.20;75.00
26164;DHT22;13914;48.178;11.716;2022-09-09T01:29:24;15.20;75.20
26164;DHT22;13914;48.178;11.716;2022-09-09T01:31:59;15.10;75.00
26164;DHT22;13914;48.178;11.716;2022-09-09T01:34:38;15.10;75.00
26164;DHT22;13914;48.178;11.716;2022-09-09T01:37:09;15.10;75.00
26164;DHT22;13914;48.178;11.716;2022-09-09T01:39:38;15.10;75.00
26164;DHT22;13914;48.178;11.716;2022-09-09T01:42:07;15.10;75.00
26164;DHT22;13914;48.178;11.716;2022-09-09T01:44:36;15.10;75.00
26164;DHT22;13914;48.178;11.716;2022-09-09T01:47:02;15.10;75.00
26164;DHT22;13914;48.178;11.716;2022-09-09T01:49:28;15.10;75.10
26164;DHT22;13914;48.178;11.716;2022-09-09T01:51:56;15.10;75.00
26164;DHT22;13914;48.178;11.716;2022-09-09T01:54:25;15.10;75.00
26164;DHT22;13914;48.178;11.716;2022-09-09T02:00:00;15.10;75.00
26164;DHT22;13914;48.178;11.716;2022-09-09T02:05:43;15.10;75.10
26164;DHT22;13914;48.178;11.716;2022-09-09T02:08:20;15.10;75.20
26164;DHT22;13914;48.178;11.716;2022-09-09T02:11:03;15.00;75.20
26164;DHT22;13914;48.178;11.716;2022-09-09T02:13:35;15.00;75.10
26164;DHT22;13914;48.178;11.716;2022-09-09T02:16:18;15.10;75.10
26164;DHT22;13914;48.178;11.716;2022-09-09T02:18:55;15.10;75.20
26164;DHT22;13914;48.178;11.716;2022-09-09T02:21:30;15.00;75.10
26164;DHT22;13914;48.178;11.716;2022-09-09T02:23:59;15.00;75.10
26164;DHT22;13914;48.178;11.716;2022-09-09T02:26:34;15.00;75.30
26164;DHT22;13914;48.178;11.716;2022-09-09T02:29:05;15.00;75.20
26164;DHT22;13914;48.178;11.716;2022-09-09T02:31:38;15.00;75.30
26164;DHT22;13914;48.178;11.716;2022-09-09T02:34:06;15.00;75.20
26164;DHT22;13914;48.178;11.716;2022-09-09T02:36:37;15.00;75.20
26164;DHT22;13914;48.178;11.716;2022-09-09T02:39:07;15.00;75.30
26164;DHT22;13914;48.178;11.716;2022-09-09T02:41:36;15.00;75.30
26164;DHT22;13914;48.178;11.716;2022-09-09T02:44:14;15.00;75.30
26164;DHT22;13914;48.178;11.716;2022-09-09T02:52:17;14.90;75.30
26164;DHT22;13914;48.178;11.716;2022-09-09T02:54:45;14.90;75.30
26164;DHT22;13914;48.178;11.716;2022-09-09T02:57:16;14.90;75.20
26164;DHT22;13914;48.178;11.716;2022-09-09T02:59:44;14.90;75.50
26164;DHT22;13914;48.178;11.716;2022-09-09T03:02:11;14.90;75.50
26164;DHT22;13914;48.178;11.716;2022-09-09T03:04:38;14.90;75.40
26164;DHT22;13914;48.178;11.716;2022-09-09T03:07:05;14.90;75.30
26164;DHT22;13914;48.178;11.716;2022-09-09T03:09:31;14.90;75.60
26164;DHT22;13914;48.178;11.716;2022-09-09T03:11:58;14.90;75.60
26164;DHT22;13914;48.178;11.716;2022-09-09T03:14:24;14.90;75.70
26164;DHT22;13914;48.178;11.716;2022-09-09T03:16:51;14.90;75.80
26164;DHT22;13914;48.178;11.716;2022-09-09T03:19:18;14.90;75.50
26164;DHT22;13914;48.178;11.716;2022-09-09T03:21:45;14.80;75.50
26164;DHT22;13914;48.178;11.716;2022-09-09T03:24:11;14.90;75.50
26164;DHT22;13914;48.178;11.716;2022-09-09T03:26:37;14.80;75.50
26164;DHT22;13914;48.178;11.716;2022-09-09T03:29:04;14.90;75.80
26164;DHT22;13914;48.178;11.716;2022-09-09T03:31:32;14.80;75.70
26164;DHT22;13914;48.178;11.716;2022-09-09T03:33:59;14.80;75.40
26164;DHT22;13914;48.178;11.716;2022-09-09T03:36:26;14.80;75.50
26164;DHT22;13914;48.178;11.716;2022-09-09T03:38:52;14.80;75.30
26164;DHT22;13914;48.178;11.716;2022-09-09T03:41:21;14.80;75.30
26164;DHT22;13914;48.178;11.716;2022-09-09T03:43:50;14.90;75.40
26164;DHT22;13914;48.178;11.716;2022-09-09T03:46:17;14.90;75.30
26164;DHT22;13914;48.178;11.716;2022-09-09T03:48:44;14.80;75.20
26164;DHT22;13914;48.178;11.716;2022-09-09T03:51:09;14.80;75.30
26164;DHT22;13914;48.178;11.716;2022-09-09T03:53:36;14.80;75.30
26164;DHT22;13914;48.178;11.716;2022-09-09T03:56:04;14.80;75.40
26164;DHT22;13914;48.178;11.716;2022-09-09T03:58:36;14.80;75.40
26164;DHT22;13914;48.178;11.716;2022-09-09T04:01:08;14.80;75.60
26164;DHT22;13914;48.178;11.716;2022-09-09T04:03:35;14.80;75.50
26164;DHT22;13914;48.178;11.716;2022-09-09T04:06:03;14.80;75.50
26164;DHT22;13914;48.178;11.716;2022-09-09T04:08:30;14.80;75.50
26164;DHT22;13914;48.178;11.716;2022-09-09T04:10:57;14.80;75.40
26164;DHT22;13914;48.178;11.716;2022-09-09T04:13:24;14.80;75.40
26164;DHT22;13914;48.178;11.716;2022-09-09T04:15:52;14.80;75.70
26164;DHT22;13914;48.178;11.716;2022-09-09T04:18:22;14.70;75.60
26164;DHT22;13914;48.178;11.716;2022-09-09T04:20:49;14.70;75.50
26164;DHT22;13914;48.178;11.716;2022-09-09T04:23:17;14.70;75.50
26164;DHT22;13914;48.178;11.716;2022-09-09T04:25:48;14.70;76.00
26164;DHT22;13914;48.178;11.716;2022-09-09T04:28:20;14.70;75.50
26164;DHT22;13914;48.178;11.716;2022-09-09T04:30:47;14.70;75.60
26164;DHT22;13914;48.178;11.716;2022-09-09T04:33:13;14.70;75.40
26164;DHT22;13914;48.178;11.716;2022-09-09T04:35:47;14.70;75.50
26164;DHT22;13914;48.178;11.716;2022-09-09T04:38:15;14.80;75.70
26164;DHT22;13914;48.178;11.716;2022-09-09T04:40:43;14.70;75.60
26164;DHT22;13914;48.178;11.716;2022-09-09T04:43:12;14.70;75.50
26164;DHT22;13914;48.178;11.716;2022-09-09T04:45:39;14.70;75.50
26164;DHT22;13914;48.178;11.716;2022-09-09T04:48:06;14.70;75.60
26164;DHT22;13914;48.178;11.716;2022-09-09T04:50:33;14.70;75.60
26164;DHT22;13914;48.178;11.716;2022-09-09T04:53:00;14.70;75.70
26164;DHT22;13914;48.178;11.716;2022-09-09T04:55:27;14.70;75.70
26164;DHT22;13914;48.178;11.716;2022-09-09T04:57:52;14.70;75.50
26164;DHT22;13914;48.178;11.716;2022-09-09T05:00:19;14.70;75.60
26164;DHT22;13914;48.178;11.716;2022-09-09T05:02:45;14.70;75.80
26164;DHT22;13914;48.178;11.716;2022-09-09T05:05:10;14.70;75.80
26164;DHT22;13914;48.178;11.716;2022-09-09T05:07:37;14.70;75.80
26164;DHT22;13914;48.178;11.716;2022-09-09T05:10:03;14.70;75.60
26164;DHT22;13914;48.178;11.716;2022-09-09T05:12:30;14.60;75.60
26164;DHT22;13914;48.178;11.716;2022-09-09T05:14:56;14.70;75.60
26164;DHT22;13914;48.178;11.716;2022-09-09T05:17:23;14.60;75.60
26164;DHT22;13914;48.178;11.716;2022-09-09T05:19:49;14.60;76.00
26164;DHT22;13914;48.178;11.716;2022-09-09T05:22:19;14.60;75.70
26164;DHT22;13914;48.178;11.716;2022-09-09T05:24:45;14.60;75.70
26164;DHT22;13914;48.178;11.716;2022-09-09T05:27:11;14.60;75.70
26164;DHT22;13914;48.178;11.716;2022-09-09T05:29:38;14.60;75.60
26164;DHT22;13914;48.178;11.716;2022-09-09T05:32:04;14.60;75.80
26164;DHT22;13914;48.178;11.716;2022-09-09T05:34:30;14.60;76.50
26164;DHT22;13914;48.178;11.716;2022-09-09T05:36:56;14.60;76.10
26164;DHT22;13914;48.178;11.716;2022-09-09T05:39:21;14.60;75.80
26164;DHT22;13914;48.178;11.716;2022-09-09T05:41:47;14.60;76.30
26164;DHT22;13914;48.178;11.716;2022-09-09T05:44:13;14.60;76.60
26164;DHT22;13914;48.178;11.716;2022-09-09T05:46:39;14.60;76.00
26164;DHT22;13914;48.178;11.716;2022-09-09T05:49:05;14.60;75.60
26164;DHT22;13914;48.178;11.716;2022-09-09T05:51:31;14.60;75.70
26164;DHT22;13914;48.178;11.716;2022-09-09T05:53:57;14.60;75.60
26164;DHT22;13914;48.178;11.716;2022-09-09T05:56:26;14.60;75.40
26164;DHT22;13914;48.178;11.716;2022-09-09T05:58:53;14.60;75.50
26164;DHT22;13914;48.178;11.716;2022-09-09T06:01:22;14.60;75.50
26164;DHT22;13914;48.178;11.716;2022-09-09T06:03:50;14.60;75.40
26164;DHT22;13914;48.178;11.716;2022-09-09T06:06:22;14.70;75.40
26164;DHT22;13914;48.178;11.716;2022-09-09T06:08:52;14.70;75.60
26164;DHT22;13914;48.178;11.716;2022-09-09T06:11:24;14.70;75.40
26164;DHT22;13914;48.178;11.716;2022-09-09T06:13:52;14.70;75.30
26164;DHT22;13914;48.178;11.716;2022-09-09T06:16:21;14.70;75.40
26164;DHT22;13914;48.178;11.716;2022-09-09T06:18:51;14.70;75.30
26164;DHT22;13914;48.178;11.716;2022-09-09T06:21:24;14.70;75.30
26164;DHT22;13914;48.178;11.716;2022-09-09T06:23:51;14.80;75.10
26164;DHT22;13914;48.178;11.716;2022-09-09T06:26:23;14.80;75.20
26164;DHT22;13914;48.178;11.716;2022-09-09T06:28:54;14.80;75.20
26164;DHT22;13914;48.178;11.716;2022-09-09T06:31:26;14.80;75.20
26164;DHT22;13914;48.178;11.716;2022-09-09T06:33:54;14.90;75.40
26164;DHT22;13914;48.178;11.716;2022-09-09T06:36:28;14.80;75.30
26164;DHT22;13914;48.178;11.716;2022-09-09T06:38:55;14.90;75.20
26164;DHT22;13914;48.178;11.716;2022-09-09T06:41:25;14.90;75.30
26164;DHT22;13914;48.178;11.716;2022-09-09T06:43:52;14.90;75.10
26164;DHT22;13914;48.178;11.716;2022-09-09T06:46:20;14.90;75.30
26164;DHT22;13914;48.178;11.716;2022-09-09T06:48:48;14.90;75.20
26164;DHT22;13914;48.178;11.716;2022-09-09T06:53:42;15.00;75.10
26164;DHT22;13914;48.178;11.716;2022-09-09T06:58:41;15.00;75.00
26164;DHT22;13914;48.178;11.716;2022-09-09T07:01:08;15.00;75.00
26164;DHT22;13914;48.178;11.716;2022-09-09T07:03:34;15.00;75.00
26164;DHT22;13914;48.178;11.716;2022-09-09T07:06:00;15.00;74.90
26164;DHT22;13914;48.178;11.716;2022-09-09T07:08:27;15.10;74.80
26164;DHT22;13914;48.178;11.716;2022-09-09T07:10:53;15.10;74.80
26164;DHT22;13914;48.178;11.716;2022-09-09T07:13:26;15.10;74.90
26164;DHT22;13914;48.178;11.716;2022-09-09T07:15:52;15.20;75.40
26164;DHT22;13914;48.178;11.716;2022-09-09T07:18:19;15.20;75.10
26164;DHT22;13914;48.178;11.716;2022-09-09T07:20:55;15.20;75.20
26164;DHT22;13914;48.178;11.716;2022-09-09T07:23:22;15.20;75.30
26164;DHT22;13914;48.178;11.716;2022-09-09T07:25:49;15.20;75.30
26164;DHT22;13914;48.178;11.716;2022-09-09T07:28:16;15.30;75.60
26164;DHT22;13914;48.178;11.716;2022-09-09T07:30:42;15.30;75.50
26164;DHT22;13914;48.178;11.716;2022-09-09T07:33:09;15.30;75.50
26164;DHT22;13914;48.178;11.716;2022-09-09T07:35:35;15.30;76.50
26164;DHT22;13914;48.178;11.716;2022-09-09T07:38:02;15.40;76.80
26164;DHT22;13914;48.178;11.716;2022-09-09T07:40:30;15.40;76.80
26164;DHT22;13914;48.178;11.716;2022-09-09T07:42:56;15.40;76.90
26164;DHT22;13914;48.178;11.716;2022-09-09T07:45:22;15.50;76.10
26164;DHT22;13914;48.178;11.716;2022-09-09T07:47:47;15.50;76.80
26164;DHT22;13914;48.178;11.716;2022-09-09T07:50:14;15.50;76.50
26164;DHT22;13914;48.178;11.716;2022-09-09T07:52:40;15.60;78.80
26164;DHT22;13914;48.178;11.716;2022-09-09T07:55:06;15.60;77.30
26164;DHT22;13914;48.178;11.716;2022-09-09T07:57:32;15.60;77.00
26164;DHT22;13914;48.178;11.716;2022-09-09T07:59:58;15.70;79.60
26164;DHT22;13914;48.178;11.716;2022-09-09T08:02:24;15.70;79.30
26164;DHT22;13914;48.178;11.716;2022-09-09T08:04:51;15.70;78.30
26164;DHT22;13914;48.178;11.716;2022-09-09T08:07:17;15.70;79.20
26164;DHT22;13914;48.178;11.716;2022-09-09T08:09:43;15.80;78.50
26164;DHT22;13914;48.178;11.716;2022-09-09T08:12:09;15.80;78.20
26164;DHT22;13914;48.178;11.716;2022-09-09T08:14:38;15.80;76.60
26164;DHT22;13914;48.178;11.716;2022-09-09T08:17:05;15.90;77.50
26164;DHT22;13914;48.178;11.716;2022-09-09T08:19:31;15.90;76.20
26164;DHT22;13914;48.178;11.716;2022-09-09T08:22:02;15.90;76.10
26164;DHT22;13914;48.178;11.716;2022-09-09T08:24:28;16.00;75.90
26164;DHT22;13914;48.178;11.716;2022-09-09T08:26:54;16.00;75.90
26164;DHT22;13914;48.178;11.716;2022-09-09T08:29:22;16.00;76.90
26164;DHT22;13914;48.178;11.716;2022-09-09T08:31:49;16.00;75.90
26164;DHT22;13914;48.178;11.716;2022-09-09T08:34:16;16.10;75.90
26164;DHT22;13914;48.178;11.716;2022-09-09T08:36:46;16.10;77.50
26164;DHT22;13914;48.178;11.716;2022-09-09T08:39:16;16.20;76.70
26164;DHT22;13914;48.178;11.716;2022-09-09T08:45:23;16.20;77.00
26164;DHT22;13914;48.178;11.716;2022-09-09T08:51:07;16.30;76.80
26164;DHT22;13914;48.178;11.716;2022-09-09T08:53:49;16.40;76.60
26164;DHT22;13914;48.178;11.716;2022-09-09T08:56:19;16.40;76.60
26164;DHT22;13914;48.178;11.716;2022-09-09T08:58:52;16.40;77.50
26164;DHT22;13914;48.178;11.716;2022-09-09T09:04:48;16.50;77.40
26164;DHT22;13914;48.178;11.716;2022-09-09T09:10:48;16.50;80.10
26164;DHT22;13914;48.178;11.716;2022-09-09T09:13:27;16.60;78.40
26164;DHT22;13914;48.178;11.716;2022-09-09T09:16:10;16.60;78.40
26164;DHT22;13914;48.178;11.716;2022-09-09T09:18:41;16.60;77.80
26164;DHT22;13914;48.178;11.716;2022-09-09T09:21:11;16.60;77.10
26164;DHT22;13914;48.178;11.716;2022-09-09T09:23:58;16.60;76.80
26164;DHT22;13914;48.178;11.716;2022-09-09T09:26:38;16.70;78.10
26164;DHT22;13914;48.178;11.716;2022-09-09T09:29:11;16.70;77.60
26164;DHT22;13914;48.178;11.716;2022-09-09T09:31:56;16.70;77.90
26164;DHT22;13914;48.178;11.716;2022-09-09T09:34:24;16.70;76.50
26164;DHT22;13914;48.178;11.716;2022-09-09T09:36:56;16.80;77.20
26164;DHT22;13914;48.178;11.716;2022-09-09T09:42:10;16.80;76.40
26164;DHT22;13914;48.178;11.716;2022-09-09T09:44:40;16.80;76.00
26164;DHT22;13914;48.178;11.716;2022-09-09T09:47:07;16.80;75.80
26164;DHT22;13914;48.178;11.716;2022-09-09T09:49:51;16.90;76.10
26164;DHT22;13914;48.178;11.716;2022-09-09T09:52:29;16.90;75.60
26164;DHT22;13914;48.178;11.716;2022-09-09T09:54:57;17.00;76.10
26164;DHT22;13914;48.178;11.716;2022-09-09T09:57:27;17.00;75.70
26164;DHT22;13914;48.178;11.716;2022-09-09T10:00:16;17.00;75.70
26164;DHT22;13914;48.178;11.716;2022-09-09T10:02:46;17.10;75.70
26164;DHT22;13914;48.178;11.716;2022-09-09T10:05:24;17.10;75.70
26164;DHT22;13914;48.178;11.716;2022-09-09T10:08:08;17.10;75.50
26164;DHT22;13914;48.178;11.716;2022-09-09T10:13:28;17.20;75.60
26164;DHT22;13914;48.178;11.716;2022-09-09T10:16:17;17.20;75.60
26164;DHT22;13914;48.178;11.716;2022-09-09T10:19:00;17.20;75.60
26164;DHT22;13914;48.178;11.716;2022-09-09T10:33:13;17.40;75.30
26164;DHT22;13914;48.178;11.716;2022-09-09T10:36:07;17.40;75.40
26164;DHT22;13914;48.178;11.716;2022-09-09T10:38:57;17.50;75.30
26164;DHT22;13914;48.178;11.716;2022-09-09T10:41:50;17.50;75.30
26164;DHT22;13914;48.178;11.716;2022-09-09T10:49:55;17.60;75.20
26164;DHT22;13914;48.178;11.716;2022-09-09T10:52:50;17.60;75.20
26164;DHT22;13914;48.178;11.716;2022-09-09T10:55:28;17.70;75.10
26164;DHT22;13914;48.178;11.716;2022-09-09T10:58:03;17.70;75.20
26164;DHT22;13914;48.178;11.716;2022-09-09T11:00:47;17.70;75.00
26164;DHT22;13914;48.178;11.716;2022-09-09T11:03:26;17.80;75.10
26164;DHT22;13914;48.178;11.716;2022-09-09T11:06:16;17.80;75.00
26164;DHT22;13914;48.178;11.716;2022-09-09T11:08:45;17.90;75.00
26164;DHT22;13914;48.178;11.716;2022-09-09T11:11:26;17.90;75.00
26164;DHT22;13914;48.178;11.716;2022-09-09T11:14:09;17.90;74.90
26164;DHT22;13914;48.178;11.716;2022-09-09T11:16:52;18.00;75.00
26164;DHT22;13914;48.178;11.716;2022-09-09T11:19:33;18.00;75.00
26164;DHT22;13914;48.178;11.716;2022-09-09T11:25:04;18.10;75.10
26164;DHT22;13914;48.178;11.716;2022-09-09T11:28:00;18.10;75.30
26164;DHT22;13914;48.178;11.716;2022-09-09T11:31:03;18.20;74.90
26164;DHT22;13914;48.178;11.716;2022-09-09T11:44:46;18.50;74.60
26164;DHT22;13914;48.178;11.716;2022-09-09T11:52:50;18.70;74.60
26164;DHT22;13914;48.178;11.716;2022-09-09T11:55:29;18.70;74.60
26164;DHT22;13914;48.178;11.716;2022-09-09T11:58:03;18.70;74.40
26164;DHT22;13914;48.178;11.716;2022-09-09T12:00:49;18.80;74.50
26164;DHT22;13914;48.178;11.716;2022-09-09T12:03:36;18.90;74.40
26164;DHT22;13914;48.178;11.716;2022-09-09T12:06:33;18.90;74.20
26164;DHT22;13914;48.178;11.716;2022-09-09T12:09:17;19.00;74.60
26164;DHT22;13914;48.178;11.716;2022-09-09T12:11:45;19.00;74.30
26164;DHT22;13914;48.178;11.716;2022-09-09T12:14:36;19.00;74.10
26164;DHT22;13914;48.178;11.716;2022-09-09T12:17:24;19.10;74.10
26164;DHT22;13914;48.178;11.716;2022-09-09T12:31:35;19.30;74.10
26164;DHT22;13914;48.178;11.716;2022-09-09T12:34:32;19.30;74.00
26164;DHT22;13914;48.178;11.716;2022-09-09T12:40:29;19.40;73.90
26164;DHT22;13914;48.178;11.716;2022-09-09T12:42:57;19.40;73.80
26164;DHT22;13914;48.178;11.716;2022-09-09T12:45:28;19.40;73.80
26164;DHT22;13914;48.178;11.716;2022-09-09T12:47:57;19.50;73.80
26164;DHT22;13914;48.178;11.716;2022-09-09T12:50:29;19.50;73.70
26164;DHT22;13914;48.178;11.716;2022-09-09T12:53:08;19.50;73.40
26164;DHT22;13914;48.178;11.716;2022-09-09T12:55:50;19.50;73.50
26164;DHT22;13914;48.178;11.716;2022-09-09T12:58:19;19.50;73.40
26164;DHT22;13914;48.178;11.716;2022-09-09T13:00:52;19.60;73.40
26164;DHT22;13914;48.178;11.716;2022-09-09T13:03:22;19.60;73.40
26164;DHT22;13914;48.178;11.716;2022-09-09T13:05:49;19.60;73.50
26164;DHT22;13914;48.178;11.716;2022-09-09T13:08:16;19.60;73.50
26164;DHT22;13914;48.178;11.716;2022-09-09T13:10:51;19.70;73.30
26164;DHT22;13914;48.178;11.716;2022-09-09T13:16:05;19.70;73.40
26164;DHT22;13914;48.178;11.716;2022-09-09T13:18:39;19.70;73.50
26164;DHT22;13914;48.178;11.716;2022-09-09T13:21:06;19.80;73.10
26164;DHT22;13914;48.178;11.716;2022-09-09T13:23:36;19.80;73.40
26164;DHT22;13914;48.178;11.716;2022-09-09T13:28:33;19.90;73.20
26164;DHT22;13914;48.178;11.716;2022-09-09T13:31:05;19.90;73.30
26164;DHT22;13914;48.178;11.716;2022-09-09T13:33:43;20.00;73.20
26164;DHT22;13914;48.178;11.716;2022-09-09T13:36:11;20.00;73.30
26164;DHT22;13914;48.178;11.716;2022-09-09T13:41:23;20.00;73.20
26164;DHT22;13914;48.178;11.716;2022-09-09T13:43:50;20.10;72.90
26164;DHT22;13914;48.178;11.716;2022-09-09T13:46:37;20.10;73.20
26164;DHT22;13914;48.178;11.716;2022-09-09T13:51:45;20.20;73.00
26164;DHT22;13914;48.178;11.716;2022-09-09T13:54:14;20.20;73.60
26164;DHT22;13914;48.178;11.716;2022-09-09T13:56:41;20.20;73.00
26164;DHT22;13914;48.178;11.716;2022-09-09T13:59:16;20.20;73.00
26164;DHT22;13914;48.178;11.716;2022-09-09T14:01:46;20.30;72.90
26164;DHT22;13914;48.178;11.716;2022-09-09T14:04:14;20.30;72.90
26164;DHT22;13914;48.178;11.716;2022-09-09T14:06:41;20.30;72.60
26164;DHT22;13914;48.178;11.716;2022-09-09T14:09:12;20.30;72.50
26164;DHT22;13914;48.178;11.716;2022-09-09T14:11:39;20.30;72.50
26164;DHT22;13914;48.178;11.716;2022-09-09T14:14:05;20.30;72.40
26164;DHT22;13914;48.178;11.716;2022-09-09T14:16:31;20.30;72.10
26164;DHT22;13914;48.178;11.716;2022-09-09T14:18:58;20.30;73.00
26164;DHT22;13914;48.178;11.716;2022-09-09T14:21:25;20.30;72.20
26164;DHT22;13914;48.178;11.716;2022-09-09T14:23:51;20.20;72.00
26164;DHT22;13914;48.178;11.716;2022-09-09T14:26:24;20.30;72.40
26164;DHT22;13914;48.178;11.716;2022-09-09T14:28:50;20.30;72.30
26164;DHT22;13914;48.178;11.716;2022-09-09T14:31:17;20.20;72.20
26164;DHT22;13914;48.178;11.716;2022-09-09T14:33:43;20.20;72.00
26164;DHT22;13914;48.178;11.716;2022-09-09T14:36:10;20.20;72.00
26164;DHT22;13914;48.178;11.716;2022-09-09T14:38:37;20.20;72.00
26164;DHT22;13914;48.178;11.716;2022-09-09T14:41:15;20.20;72.10
26164;DHT22;13914;48.178;11.716;2022-09-09T14:43:42;20.20;72.00
26164;DHT22;13914;48.178;11.716;2022-09-09T14:46:10;20.20;72.00
26164;DHT22;13914;48.178;11.716;2022-09-09T14:48:38;20.20;73.00
26164;DHT22;13914;48.178;11.716;2022-09-09T14:51:10;20.10;72.00
26164;DHT22;13914;48.178;11.716;2022-09-09T14:53:39;20.10;72.10
26164;DHT22;13914;48.178;11.716;2022-09-09T14:56:13;20.10;72.00
26164;DHT22;13914;48.178;11.716;2022-09-09T14:58:44;20.10;72.00
26164;DHT22;13914;48.178;11.716;2022-09-09T15:01:16;20.10;72.00
26164;DHT22;13914;48.178;11.716;2022-09-09T15:03:49;20.10;72.10
26164;DHT22;13914;48.178;11.716;2022-09-09T15:06:16;20.10;72.10
26164;DHT22;13914;48.178;11.716;2022-09-09T15:08:44;20.10;72.10
26164;DHT22;13914;48.178;11.716;2022-09-09T15:11:12;20.00;71.80
26164;DHT22;13914;48.178;11.716;2022-09-09T15:13:40;20.00;72.00
26164;DHT22;13914;48.178;11.716;2022-09-09T15:16:08;20.00;72.90
26164;DHT22;13914;48.178;11.716;2022-09-09T15:18:35;20.00;72.10
26164;DHT22;13914;48.178;11.716;2022-09-09T15:21:05;20.00;72.00
26164;DHT22;13914;48.178;11.716;2022-09-09T15:23:35;20.00;71.90
26164;DHT22;13914;48.178;11.716;2022-09-09T15:26:01;20.00;71.70
26164;DHT22;13914;48.178;11.716;2022-09-09T15:28:28;19.90;71.70
26164;DHT22;13914;48.178;11.716;2022-09-09T15:30:54;19.90;71.80
26164;DHT22;13914;48.178;11.716;2022-09-09T15:33:20;19.90;71.70
26164;DHT22;13914;48.178;11.716;2022-09-09T15:35:46;19.90;71.70
26164;DHT22;13914;48.178;11.716;2022-09-09T15:38:13;19.90;71.80
26164;DHT22;13914;48.178;11.716;2022-09-09T15:40:39;19.80;71.70
26164;DHT22;13914;48.178;11.716;2022-09-09T15:43:06;19.80;71.60
26164;DHT22;13914;48.178;11.716;2022-09-09T15:45:33;19.80;71.60
26164;DHT22;13914;48.178;11.716;2022-09-09T15:48:00;19.80;71.80
26164;DHT22;13914;48.178;11.716;2022-09-09T15:50:27;19.80;71.60
26164;DHT22;13914;48.178;11.716;2022-09-09T15:52:54;19.70;71.70
26164;DHT22;13914;48.178;11.716;2022-09-09T15:55:20;19.70;71.60
26164;DHT22;13914;48.178;11.716;2022-09-09T15:57:46;19.70;71.60
26164;DHT22;13914;48.178;11.716;2022-09-09T16:00:13;19.70;71.70
26164;DHT22;13914;48.178;11.716;2022-09-09T16:02:39;19.70;71.70
26164;DHT22;13914;48.178;11.716;2022-09-09T16:05:05;19.70;71.70
26164;DHT22;13914;48.178;11.716;2022-09-09T16:07:31;19.60;71.60
26164;DHT22;13914;48.178;11.716;2022-09-09T16:09:57;19.60;71.60
26164;DHT22;13914;48.178;11.716;2022-09-09T16:12:23;19.60;71.70
26164;DHT22;13914;48.178;11.716;2022-09-09T16:14:49;19.60;71.70
26164;DHT22;13914;48.178;11.716;2022-09-09T16:17:14;19.60;71.80
26164;DHT22;13914;48.178;11.716;2022-09-09T16:19:41;19.60;71.90
26164;DHT22;13914;48.178;11.716;2022-09-09T16:22:06;19.60;71.80
26164;DHT22;13914;48.178;11.716;2022-09-09T16:24:32;19.50;71.70
26164;DHT22;13914;48.178;11.716;2022-09-09T16:26:58;19.50;71.90
26164;DHT22;13914;48.178;11.716;2022-09-09T16:29:25;19.50;71.80
26164;DHT22;13914;48.178;11.716;2022-09-09T16:31:53;19.50;71.80
26164;DHT22;13914;48.178;11.716;2022-09-09T16:34:20;19.40;71.80
26164;DHT22;13914;48.178;11.716;2022-09-09T16:36:47;19.50;71.90
26164;DHT22;13914;48.178;11.716;2022-09-09T16:39:18;19.40;72.20
26164;DHT22;13914;48.178;11.716;2022-09-09T16:41:46;19.40;71.60
26164;DHT22;13914;48.178;11.716;2022-09-09T16:44:14;19.40;72.40
26164;DHT22;13914;48.178;11.716;2022-09-09T16:46:44;19.40;71.60
26164;DHT22;13914;48.178;11.716;2022-09-09T16:49:12;19.40;71.60
26164;DHT22;13914;48.178;11.716;2022-09-09T16:51:46;19.30;71.60
26164;DHT22;13914;48.178;11.716;2022-09-09T16:54:13;19.30;71.50
26164;DHT22;13914;48.178;11.716;2022-09-09T16:56:42;19.30;71.60
26164;DHT22;13914;48.178;11.716;2022-09-09T16:59:14;19.30;71.70
26164;DHT22;13914;48.178;11.716;2022-09-09T17:01:43;19.30;71.50
26164;DHT22;13914;48.178;11.716;2022-09-09T17:04:16;19.20;71.40
26164;DHT22;13914;48.178;11.716;2022-09-09T17:06:49;19.20;71.50
26164;DHT22;13914;48.178;11.716;2022-09-09T17:09:17;19.20;71.50
26164;DHT22;13914;48.178;11.716;2022-09-09T17:11:44;19.20;71.70
26164;DHT22;13914;48.178;11.716;2022-09-09T17:14:14;19.10;71.60
26164;DHT22;13914;48.178;11.716;2022-09-09T17:16:41;19.10;71.60
26164;DHT22;13914;48.178;11.716;2022-09-09T17:19:07;19.10;71.80
26164;DHT22;13914;48.178;11.716;2022-09-09T17:21:34;19.00;71.70
26164;DHT22;13914;48.178;11.716;2022-09-09T17:24:00;19.00;71.90
26164;DHT22;13914;48.178;11.716;2022-09-09T17:26:29;19.00;71.90
26164;DHT22;13914;48.178;11.716;2022-09-09T17:28:57;19.00;71.90
26164;DHT22;13914;48.178;11.716;2022-09-09T17:31:27;18.90;72.00
26164;DHT22;13914;48.178;11.716;2022-09-09T17:33:54;18.90;71.90
26164;DHT22;13914;48.178;11.716;2022-09-09T17:36:26;18.90;71.90
26164;DHT22;13914;48.178;11.716;2022-09-09T17:38:54;18.80;72.00